sensor_id;sensor_type;location;lat;lon;timestamp;pressure;altitude;pressure_sealevel;temperature;humidity
11114;BME280;5610;52.154;9.198;2023-01-25T00:00:23;102899.88;;;2.46;100.00
11114;BME280;5610;52.154;9.198;2023-01-25T00:03:08;102887.53;;;2.39;100.00
11114;BME280;5610;52.154;9.198;2023-01-25T00:05:57;102889.34;;;2.40;100.00
11114;BME280;5610;52.154;9.198;2023-01-25T00:08:48;102883.31;;;2.58;100.00
11114;BME280;5610;52.154;9.198;2023-01-25T00:11:33;102873.72;;;2.66;100.00
11114;BME280;5610;52.154;9.198;2023-01-25T00:14:18;102870.25;;;2.71;100.00
11114;BME280;5610;52.154;9.198;2023-01-25T00:17:04;102865.81;;;2.67;100.00
11114;BME280;5610;52.154;9.198;2023-01-25T00:19:49;102863.28;;;2.75;100.00
11114;BME280;5610;52.154;9.198;2023-01-25T00:22:34;102868.50;;;2.70;100.00
11114;BME280;5610;52.154;9.198;2023-01-25T00:25:21;102862.44;;;2.82;100.00
11114;BME280;5610;52.154;9.198;2023-01-25T00:28:07;102858.06;;;2.89;100.00
11114;BME280;5610;52.154;9.198;2023-01-25T00:30:52;102851.06;;;2.89;100.00
11114;BME280;5610;52.154;9.198;2023-01-25T00:33:42;102851.88;;;2.76;100.00
11114;BME280;5610;52.154;9.198;2023-01-25T00:36:33;102846.69;;;2.91;100.00
11114;BME280;5610;52.154;9.198;2023-01-25T00:39:24;102843.13;;;2.85;100.00
11114;BME280;5610;52.154;9.198;2023-01-25T00:42:12;102842.25;;;2.86;100.00
11114;BME280;5610;52.154;9.198;2023-01-25T00:44:58;102837.88;;;2.88;100.00
11114;BME280;5610;52.154;9.198;2023-01-25T00:47:43;102833.53;;;2.97;100.00
11114;BME280;5610;52.154;9.198;2023-01-25T00:50:28;102828.31;;;3.03;100.00
11114;BME280;5610;52.154;9.198;2023-01-25T00:53:14;102839.75;;;3.10;100.00
11114;BME280;5610;52.154;9.198;2023-01-25T00:55:59;102823.94;;;3.15;100.00
11114;BME280;5610;52.154;9.198;2023-01-25T00:58:46;102825.72;;;3.14;100.00
11114;BME280;5610;52.154;9.198;2023-01-25T01:01:34;102826.59;;;3.15;100.00
11114;BME280;5610;52.154;9.198;2023-01-25T01:04:20;102819.59;;;3.18;100.00
11114;BME280;5610;52.154;9.198;2023-01-25T01:07:07;102821.34;;;3.19;100.00
11114;BME280;5610;52.154;9.198;2023-01-25T01:09:53;102827.47;;;3.12;100.00
11114;BME280;5610;52.154;9.198;2023-01-25T01:12:38;102827.38;;;2.94;100.00
11114;BME280;5610;52.154;9.198;2023-01-25T01:15:25;102823.88;;;2.96;100.00
11114;BME280;5610;52.154;9.198;2023-01-25T01:18:12;102825.69;;;3.03;100.00
11114;BME280;5610;52.154;9.198;2023-01-25T01:20:57;102824.81;;;3.06;100.00
11114;BME280;5610;52.154;9.198;2023-01-25T01:23:43;102821.25;;;2.96;100.00
11114;BME280;5610;52.154;9.198;2023-01-25T01:26:28;102811.63;;;3.06;100.00
11114;BME280;5610;52.154;9.198;2023-01-25T01:29:13;102815.13;;;2.99;100.00
11114;BME280;5610;52.154;9.198;2023-01-25T01:32:00;102818.59;;;2.92;100.00
11114;BME280;5610;52.154;9.198;2023-01-25T01:34:46;102818.63;;;3.02;100.00
11114;BME280;5610;52.154;9.198;2023-01-25T01:37:31;102830.97;;;3.13;100.00
11114;BME280;5610;52.154;9.198;2023-01-25T01:40:16;102823.94;;;3.16;100.00
11114;BME280;5610;52.154;9.198;2023-01-25T01:43:03;102819.59;;;3.21;100.00
11114;BME280;5610;52.154;9.198;2023-01-25T01:45:53;102819.63;;;3.24;100.00
11114;BME280;5610;52.154;9.198;2023-01-25T01:48:50;102819.63;;;3.26;100.00
11114;BME280;5610;52.154;9.198;2023-01-25T01:51:43;102822.25;;;3.29;100.00
11114;BME280;5610;52.154;9.198;2023-01-25T01:54:39;102823.13;;;3.29;100.00
11114;BME280;5610;52.154;9.198;2023-01-25T01:57:30;102810.84;;;3.28;100.00
11114;BME280;5610;52.154;9.198;2023-01-25T02:00:18;102809.03;;;3.14;100.00
11114;BME280;5610;52.154;9.198;2023-01-25T02:03:05;102798.47;;;3.17;100.00
11114;BME280;5610;52.154;9.198;2023-01-25T02:05:56;102796.75;;;3.22;100.00
11114;BME280;5610;52.154;9.198;2023-01-25T02:08:44;102796.78;;;3.25;100.00
11114;BME280;5610;52.154;9.198;2023-01-25T02:11:31;102797.66;;;3.27;100.00
11114;BME280;5610;52.154;9.198;2023-01-25T02:14:18;102792.38;;;3.30;100.00
11114;BME280;5610;52.154;9.198;2023-01-25T02:17:03;102793.25;;;3.30;100.00
11114;BME280;5610;52.154;9.198;2023-01-25T02:19:53;102788.91;;;3.33;100.00
11114;BME280;5610;52.154;9.198;2023-01-25T02:22:50;102785.38;;;3.35;100.00
11114;BME280;5610;52.154;9.198;2023-01-25T02:25:39;102784.50;;;3.36;100.00
11114;BME280;5610;52.154;9.198;2023-01-25T02:28:27;102783.63;;;3.36;100.00
11114;BME280;5610;52.154;9.198;2023-01-25T02:31:14;102783.63;;;3.37;100.00
11114;BME280;5610;52.154;9.198;2023-01-25T02:33:59;102788.91;;;3.39;100.00
11114;BME280;5610;52.154;9.198;2023-01-25T02:36:45;102785.38;;;3.38;100.00
11114;BME280;5610;52.154;9.198;2023-01-25T02:39:31;102785.41;;;3.40;100.00
11114;BME280;5610;52.154;9.198;2023-01-25T02:42:17;102798.56;;;3.32;100.00
11114;BME280;5610;52.154;9.198;2023-01-25T02:45:05;102796.81;;;3.34;100.00
11114;BME280;5610;52.154;9.198;2023-01-25T02:47:53;102785.34;;;3.30;100.00
11114;BME280;5610;52.154;9.198;2023-01-25T02:50:38;102782.75;;;3.35;100.00
11114;BME280;5610;52.154;9.198;2023-01-25T02:53:24;102778.34;;;3.37;100.00
11114;BME280;5610;52.154;9.198;2023-01-25T02:56:10;102779.22;;;3.38;100.00
11114;BME280;5610;52.154;9.198;2023-01-25T02:58:57;102766.91;;;3.21;100.00
11114;BME280;5610;52.154;9.198;2023-01-25T03:01:42;102761.66;;;3.24;100.00
11114;BME280;5610;52.154;9.198;2023-01-25T03:04:28;102755.44;;;3.06;100.00
11114;BME280;5610;52.154;9.198;2023-01-25T03:07:13;102752.81;;;3.06;100.00
11114;BME280;5610;52.154;9.198;2023-01-25T03:09:58;102748.38;;;2.98;100.00
11114;BME280;5610;52.154;9.198;2023-01-25T03:12:44;102736.94;;;2.84;100.00
11114;BME280;5610;52.154;9.198;2023-01-25T03:15:30;102742.16;;;2.78;100.00
11114;BME280;5610;52.154;9.198;2023-01-25T03:18:16;102726.38;;;2.87;100.00
11114;BME280;5610;52.154;9.198;2023-01-25T03:21:06;102729.88;;;2.79;100.00
11114;BME280;5610;52.154;9.198;2023-01-25T03:23:57;102735.91;;;2.58;100.00
11114;BME280;5610;52.154;9.198;2023-01-25T03:26:46;102729.00;;;2.75;100.00
11114;BME280;5610;52.154;9.198;2023-01-25T03:29:54;102722.00;;;2.88;100.00
11114;BME280;5610;52.154;9.198;2023-01-25T03:32:44;102718.47;;;2.75;100.00
11114;BME280;5610;52.154;9.198;2023-01-25T03:35:35;102724.66;;;2.91;100.00
11114;BME280;5610;52.154;9.198;2023-01-25T03:38:22;102713.22;;;2.87;100.00
11114;BME280;5610;52.154;9.198;2023-01-25T03:41:07;102723.78;;;2.93;100.00
11114;BME280;5610;52.154;9.198;2023-01-25T03:43:53;102706.22;;;2.94;100.00
11114;BME280;5610;52.154;9.198;2023-01-25T03:46:39;102707.91;;;2.69;100.00
11114;BME280;5610;52.154;9.198;2023-01-25T03:49:26;102703.53;;;2.71;100.00
11114;BME280;5610;52.154;9.198;2023-01-25T03:52:11;102710.59;;;2.84;100.00
11114;BME280;5610;52.154;9.198;2023-01-25T03:54:59;102707.09;;;2.84;100.00
11114;BME280;5610;52.154;9.198;2023-01-25T03:57:45;102704.44;;;2.76;100.00
11114;BME280;5610;52.154;9.198;2023-01-25T04:00:32;102701.75;;;2.62;100.00
11114;BME280;5610;52.154;9.198;2023-01-25T04:03:18;102699.13;;;2.71;100.00
11114;BME280;5610;52.154;9.198;2023-01-25T04:06:06;102701.75;;;2.73;100.00
11114;BME280;5610;52.154;9.198;2023-01-25T04:08:51;102695.63;;;2.68;100.00
11114;BME280;5610;52.154;9.198;2023-01-25T04:11:40;102694.72;;;2.67;100.00
11114;BME280;5610;52.154;9.198;2023-01-25T04:14:25;102690.38;;;2.77;100.00
11114;BME280;5610;52.154;9.198;2023-01-25T04:17:18;102687.72;;;2.69;100.00
11114;BME280;5610;52.154;9.198;2023-01-25T04:20:12;102687.75;;;2.77;100.00
11114;BME280;5610;52.154;9.198;2023-01-25T04:22:59;102681.63;;;2.89;100.00
11114;BME280;5610;52.154;9.198;2023-01-25T04:25:52;102687.78;;;2.86;100.00
11114;BME280;5610;52.154;9.198;2023-01-25T04:28:38;102682.53;;;2.94;100.00
11114;BME280;5610;52.154;9.198;2023-01-25T04:31:24;102680.78;;;2.91;100.00
11114;BME280;5610;52.154;9.198;2023-01-25T04:34:10;102683.34;;;2.79;100.00
11114;BME280;5610;52.154;9.198;2023-01-25T04:36:55;102671.09;;;2.86;100.00
11114;BME280;5610;52.154;9.198;2023-01-25T04:39:45;102685.13;;;2.77;100.00
11114;BME280;5610;52.154;9.198;2023-01-25T04:42:30;102673.72;;;2.87;100.00
11114;BME280;5610;52.154;9.198;2023-01-25T04:45:16;102664.94;;;2.87;100.00
11114;BME280;5610;52.154;9.198;2023-01-25T04:48:03;102670.25;;;2.90;100.00
11114;BME280;5610;52.154;9.198;2023-01-25T04:50:52;102664.88;;;2.64;100.00
11114;BME280;5610;52.154;9.198;2023-01-25T04:53:39;102663.09;;;2.55;100.00
11114;BME280;5610;52.154;9.198;2023-01-25T04:56:26;102662.13;;;2.36;100.00
11114;BME280;5610;52.154;9.198;2023-01-25T04:59:13;102662.16;;;2.41;100.00
11114;BME280;5610;52.154;9.198;2023-01-25T05:01:58;102658.63;;;2.37;100.00
11114;BME280;5610;52.154;9.198;2023-01-25T05:04:44;102666.56;;;2.43;100.00
11114;BME280;5610;52.154;9.198;2023-01-25T05:07:29;102668.06;;;1.99;100.00
11114;BME280;5610;52.154;9.198;2023-01-25T05:10:15;102666.38;;;2.11;100.00
11114;BME280;5610;52.154;9.198;2023-01-25T05:13:21;102658.56;;;2.25;100.00
11114;BME280;5610;52.154;9.198;2023-01-25T05:16:13;102662.09;;;2.27;100.00
11114;BME280;5610;52.154;9.198;2023-01-25T05:18:58;102662.03;;;2.12;100.00
11114;BME280;5610;52.154;9.198;2023-01-25T05:21:54;102659.34;;;2.06;100.00
11114;BME280;5610;52.154;9.198;2023-01-25T05:24:44;102655.06;;;2.23;100.00
11114;BME280;5610;52.154;9.198;2023-01-25T05:27:31;102655.16;;;2.41;100.00
11114;BME280;5610;52.154;9.198;2023-01-25T05:30:37;102656.94;;;2.47;100.00
11114;BME280;5610;52.154;9.198;2023-01-25T05:33:37;102653.41;;;2.40;100.00
11114;BME280;5610;52.154;9.198;2023-01-25T05:36:22;102665.56;;;2.20;100.00
11114;BME280;5610;52.154;9.198;2023-01-25T05:39:08;102647.97;;;2.07;100.00
11114;BME280;5610;52.154;9.198;2023-01-25T05:41:54;102656.69;;;2.03;100.00
11114;BME280;5610;52.154;9.198;2023-01-25T05:44:40;102647.84;;;1.88;100.00
11114;BME280;5610;52.154;9.198;2023-01-25T05:47:27;102646.25;;;2.15;100.00
11114;BME280;5610;52.154;9.198;2023-01-25T05:50:14;102648.06;;;2.30;100.00
11114;BME280;5610;52.154;9.198;2023-01-25T05:53:15;102654.28;;;2.41;100.00
11114;BME280;5610;52.154;9.198;2023-01-25T05:56:03;102645.50;;;2.42;100.00
11114;BME280;5610;52.154;9.198;2023-01-25T05:58:51;102637.59;;;2.45;100.00
11114;BME280;5610;52.154;9.198;2023-01-25T06:01:37;102639.41;;;2.47;100.00
11114;BME280;5610;52.154;9.198;2023-01-25T06:04:24;102642.88;;;2.43;100.00
11114;BME280;5610;52.154;9.198;2023-01-25T06:07:09;102639.41;;;2.47;100.00
11114;BME280;5610;52.154;9.198;2023-01-25T06:09:55;102638.50;;;2.44;100.00
11114;BME280;5610;52.154;9.198;2023-01-25T06:12:40;102636.63;;;2.25;100.00
11114;BME280;5610;52.154;9.198;2023-01-25T06:15:25;102641.03;;;2.24;100.00
11114;BME280;5610;52.154;9.198;2023-01-25T06:18:14;102635.75;;;2.19;100.00
11114;BME280;5610;52.154;9.198;2023-01-25T06:21:24;102634.81;;;2.11;100.00
11114;BME280;5610;52.154;9.198;2023-01-25T06:24:09;102631.31;;;2.09;100.00
11114;BME280;5610;52.154;9.198;2023-01-25T06:26:54;102627.00;;;2.25;100.00
11114;BME280;5610;52.154;9.198;2023-01-25T06:29:40;102628.81;;;2.35;100.00
11114;BME280;5610;52.154;9.198;2023-01-25T06:32:31;102618.31;;;2.44;100.00
11114;BME280;5610;52.154;9.198;2023-01-25T06:35:16;102616.63;;;2.56;100.00
11114;BME280;5610;52.154;9.198;2023-01-25T06:38:03;102628.91;;;2.66;100.00
11114;BME280;5610;52.154;9.198;2023-01-25T06:40:48;102627.19;;;2.71;100.00
11114;BME280;5610;52.154;9.198;2023-01-25T06:43:33;102620.16;;;2.73;100.00
11114;BME280;5610;52.154;9.198;2023-01-25T06:46:19;102633.34;;;2.76;100.00
11114;BME280;5610;52.154;9.198;2023-01-25T06:49:04;102628.06;;;2.78;100.00
11114;BME280;5610;52.154;9.198;2023-01-25T06:51:50;102623.72;;;2.83;100.00
11114;BME280;5610;52.154;9.198;2023-01-25T06:54:36;102624.59;;;2.83;100.00
11114;BME280;5610;52.154;9.198;2023-01-25T06:57:22;102622.81;;;2.85;100.00
11114;BME280;5610;52.154;9.198;2023-01-25T07:00:08;102627.22;;;2.89;100.00
11114;BME280;5610;52.154;9.198;2023-01-25T07:02:53;102632.50;;;2.91;100.00
11114;BME280;5610;52.154;9.198;2023-01-25T07:05:39;102622.84;;;2.91;100.00
11114;BME280;5610;52.154;9.198;2023-01-25T07:08:24;102636.00;;;2.94;100.00
11114;BME280;5610;52.154;9.198;2023-01-25T07:11:11;102632.38;;;2.50;100.00
11114;BME280;5610;52.154;9.198;2023-01-25T07:13:57;102632.41;;;2.66;100.00
11114;BME280;5610;52.154;9.198;2023-01-25T07:16:43;102620.13;;;2.64;100.00
11114;BME280;5610;52.154;9.198;2023-01-25T07:19:28;102625.41;;;2.71;100.00
11114;BME280;5610;52.154;9.198;2023-01-25T07:22:13;102615.72;;;2.60;100.00
11114;BME280;5610;52.154;9.198;2023-01-25T07:24:58;102621.84;;;2.51;100.00
11114;BME280;5610;52.154;9.198;2023-01-25T07:27:46;102626.22;;;2.46;100.00
11114;BME280;5610;52.154;9.198;2023-01-25T07:30:32;102629.75;;;2.48;100.00
11114;BME280;5610;52.154;9.198;2023-01-25T07:33:17;102620.91;;;2.34;100.00
11114;BME280;5610;52.154;9.198;2023-01-25T07:36:04;102613.84;;;2.25;100.00
11114;BME280;5610;52.154;9.198;2023-01-25T07:38:51;102616.50;;;2.27;100.00
11114;BME280;5610;52.154;9.198;2023-01-25T07:41:37;102620.94;;;2.46;100.00
11114;BME280;5610;52.154;9.198;2023-01-25T07:44:24;102621.88;;;2.56;100.00
11114;BME280;5610;52.154;9.198;2023-01-25T07:47:14;102617.50;;;2.61;100.00
11114;BME280;5610;52.154;9.198;2023-01-25T07:49:59;102611.38;;;2.71;100.00
11114;BME280;5610;52.154;9.198;2023-01-25T07:52:44;102609.63;;;2.70;100.00
11114;BME280;5610;52.154;9.198;2023-01-25T07:55:30;102613.16;;;2.75;100.00
11114;BME280;5610;52.154;9.198;2023-01-25T07:58:15;102608.75;;;2.82;100.00
11114;BME280;5610;52.154;9.198;2023-01-25T08:01:09;102607.91;;;2.90;100.00
11114;BME280;5610;52.154;9.198;2023-01-25T08:03:55;102607.91;;;2.92;100.00
11114;BME280;5610;52.154;9.198;2023-01-25T08:06:41;102608.78;;;2.95;100.00
11114;BME280;5610;52.154;9.198;2023-01-25T08:09:29;102615.81;;;3.01;100.00
11114;BME280;5610;52.154;9.198;2023-01-25T08:12:14;102605.31;;;3.04;100.00
11114;BME280;5610;52.154;9.198;2023-01-25T08:15:01;102598.28;;;3.06;100.00
11114;BME280;5610;52.154;9.198;2023-01-25T08:17:48;102600.03;;;3.07;100.00
11114;BME280;5610;52.154;9.198;2023-01-25T08:20:34;102602.66;;;3.09;100.00
11114;BME280;5610;52.154;9.198;2023-01-25T08:23:20;102600.91;;;3.12;100.00
11114;BME280;5610;52.154;9.198;2023-01-25T08:26:11;102596.53;;;3.11;100.00
11114;BME280;5610;52.154;9.198;2023-01-25T08:28:57;102599.16;;;3.14;100.00
11114;BME280;5610;52.154;9.198;2023-01-25T08:31:42;102599.13;;;3.02;100.00
11114;BME280;5610;52.154;9.198;2023-01-25T08:34:29;102599.16;;;3.05;100.00
11114;BME280;5610;52.154;9.198;2023-01-25T08:37:15;102598.25;;;2.83;100.00
11114;BME280;5610;52.154;9.198;2023-01-25T08:40:00;102593.84;;;2.85;100.00
11114;BME280;5610;52.154;9.198;2023-01-25T08:42:46;102591.22;;;2.88;100.00
11114;BME280;5610;52.154;9.198;2023-01-25T08:45:31;102588.59;;;2.96;100.00
11114;BME280;5610;52.154;9.198;2023-01-25T08:48:19;102590.38;;;3.05;100.00
11114;BME280;5610;52.154;9.198;2023-01-25T08:51:08;102584.25;;;3.10;100.00
11114;BME280;5610;52.154;9.198;2023-01-25T08:53:55;102575.44;;;3.16;100.00
11114;BME280;5610;52.154;9.198;2023-01-25T08:56:41;102575.47;;;3.19;100.00
11114;BME280;5610;52.154;9.198;2023-01-25T08:59:26;102571.06;;;3.21;100.00
11114;BME280;5610;52.154;9.198;2023-01-25T09:02:12;102568.41;;;3.22;100.00
11114;BME280;5610;52.154;9.198;2023-01-25T09:04:57;102569.28;;;3.23;100.00
11114;BME280;5610;52.154;9.198;2023-01-25T09:07:44;102564.03;;;3.27;100.00
11114;BME280;5610;52.154;9.198;2023-01-25T09:10:29;102568.44;;;3.18;100.00
11114;BME280;5610;52.154;9.198;2023-01-25T09:13:14;102571.06;;;3.25;100.00
11114;BME280;5610;52.154;9.198;2023-01-25T09:16:00;102566.66;;;3.14;100.00
11114;BME280;5610;52.154;9.198;2023-01-25T09:18:45;102557.84;;;2.61;100.00
11114;BME280;5610;52.154;9.198;2023-01-25T09:21:32;102556.00;;;2.39;100.00
11114;BME280;5610;52.154;9.198;2023-01-25T09:24:19;102565.75;;;2.70;100.00
11114;BME280;5610;52.154;9.198;2023-01-25T09:27:04;102564.03;;;2.83;100.00
11114;BME280;5610;52.154;9.198;2023-01-25T09:29:50;102551.72;;;2.93;100.00
11114;BME280;5610;52.154;9.198;2023-01-25T09:32:35;102550.84;;;2.92;100.00
11114;BME280;5610;52.154;9.198;2023-01-25T09:35:21;102543.81;;;2.96;100.00
11114;BME280;5610;52.154;9.198;2023-01-25T09:38:07;102544.72;;;3.04;100.00
11114;BME280;5610;52.154;9.198;2023-01-25T09:41:05;102531.53;;;3.01;100.00
11114;BME280;5610;52.154;9.198;2023-01-25T09:44:07;102535.06;;;3.20;100.00
11114;BME280;5610;52.154;9.198;2023-01-25T09:46:58;102528.91;;;3.32;100.00
11114;BME280;5610;52.154;9.198;2023-01-25T09:49:59;102524.50;;;3.29;100.00
11114;BME280;5610;52.154;9.198;2023-01-25T09:56:12;102520.13;;;2.94;100.00
11114;BME280;5610;52.154;9.198;2023-01-25T09:59:03;102514.84;;;2.94;100.00
11114;BME280;5610;52.154;9.198;2023-01-25T10:01:52;102515.75;;;3.07;100.00
11114;BME280;5610;52.154;9.198;2023-01-25T10:04:41;102507.81;;;3.24;100.00
11114;BME280;5610;52.154;9.198;2023-01-25T10:07:36;102512.19;;;3.40;100.00
11114;BME280;5610;52.154;9.198;2023-01-25T10:10:29;102513.06;;;3.53;100.00
11114;BME280;5610;52.154;9.198;2023-01-25T10:13:20;102514.78;;;3.58;100.00
11114;BME280;5610;52.154;9.198;2023-01-25T10:18:55;102503.41;;;3.47;100.00
11114;BME280;5610;52.154;9.198;2023-01-25T10:21:44;102495.47;;;3.49;100.00
11114;BME280;5610;52.154;9.198;2023-01-25T10:25:02;102483.19;;;3.46;100.00
11114;BME280;5610;52.154;9.198;2023-01-25T10:28:00;102485.81;;;3.54;100.00
11114;BME280;5610;52.154;9.198;2023-01-25T10:30:56;102488.41;;;3.63;100.00
11114;BME280;5610;52.154;9.198;2023-01-25T10:33:44;102470.84;;;3.51;100.00
11114;BME280;5610;52.154;9.198;2023-01-25T10:36:30;102467.38;;;3.48;100.00
11114;BME280;5610;52.154;9.198;2023-01-25T10:39:16;102468.25;;;3.47;100.00
11114;BME280;5610;52.154;9.198;2023-01-25T10:42:06;102468.28;;;3.41;100.00
11114;BME280;5610;52.154;9.198;2023-01-25T10:44:53;102468.31;;;3.32;100.00
11114;BME280;5610;52.154;9.198;2023-01-25T10:47:42;102471.78;;;3.40;100.00
11114;BME280;5610;52.154;9.198;2023-01-25T10:50:45;102463.00;;;3.41;100.00
11114;BME280;5610;52.154;9.198;2023-01-25T10:53:32;102451.56;;;3.42;100.00
11114;BME280;5610;52.154;9.198;2023-01-25T10:56:21;102442.75;;;3.53;100.00
11114;BME280;5610;52.154;9.198;2023-01-25T10:59:16;102437.47;;;3.61;100.00
11114;BME280;5610;52.154;9.198;2023-01-25T11:02:24;102431.31;;;3.61;100.00
11114;BME280;5610;52.154;9.198;2023-01-25T11:05:32;102430.47;;;3.48;100.00
11114;BME280;5610;52.154;9.198;2023-01-25T11:08:23;102425.19;;;3.48;100.00
11114;BME280;5610;52.154;9.198;2023-01-25T11:11:24;102420.78;;;3.50;100.00
11114;BME280;5610;52.154;9.198;2023-01-25T11:14:14;102424.41;;;3.17;100.00
11114;BME280;5610;52.154;9.198;2023-01-25T11:17:02;102423.56;;;3.07;100.00
11114;BME280;5610;52.154;9.198;2023-01-25T11:20:04;102420.09;;;2.90;100.00
11114;BME280;5610;52.154;9.198;2023-01-25T11:22:54;102403.44;;;2.77;100.00
11114;BME280;5610;52.154;9.198;2023-01-25T11:25:39;102406.94;;;2.64;100.00
11114;BME280;5610;52.154;9.198;2023-01-25T11:28:25;102402.53;;;2.72;100.00
11114;BME280;5610;52.154;9.198;2023-01-25T11:31:12;102399.03;;;2.73;100.00
11114;BME280;5610;52.154;9.198;2023-01-25T11:33:57;102396.38;;;2.91;100.00
11114;BME280;5610;52.154;9.198;2023-01-25T11:36:54;102387.56;;;3.03;100.00
11114;BME280;5610;52.154;9.198;2023-01-25T11:39:51;102383.16;;;3.10;100.00
11114;BME280;5610;52.154;9.198;2023-01-25T11:42:51;102374.38;;;3.08;100.00
11114;BME280;5610;52.154;9.198;2023-01-25T11:45:50;102359.50;;;2.99;100.00
11114;BME280;5610;52.154;9.198;2023-01-25T11:49:11;102349.84;;;3.04;100.00
11114;BME280;5610;52.154;9.198;2023-01-25T11:52:11;102351.59;;;3.05;100.00
11114;BME280;5610;52.154;9.198;2023-01-25T11:55:12;102334.03;;;3.04;100.00
11114;BME280;5610;52.154;9.198;2023-01-25T11:58:08;102327.81;;;3.19;100.00
11114;BME280;5610;52.154;9.198;2023-01-25T12:01:06;102322.47;;;3.31;100.00
11114;BME280;5610;52.154;9.198;2023-01-25T12:04:31;102319.94;;;3.08;100.00
11114;BME280;5610;52.154;9.198;2023-01-25T12:07:30;102305.00;;;3.15;100.00
11114;BME280;5610;52.154;9.198;2023-01-25T12:10:25;102299.81;;;2.95;100.00
11114;BME280;5610;52.154;9.198;2023-01-25T12:13:20;102292.75;;;3.08;100.00
11114;BME280;5610;52.154;9.198;2023-01-25T12:16:16;102282.16;;;3.21;100.00
11114;BME280;5610;52.154;9.198;2023-01-25T12:19:18;102275.06;;;3.33;100.00
11114;BME280;5610;52.154;9.198;2023-01-25T12:22:24;102280.28;;;3.46;100.00
11114;BME280;5610;52.154;9.198;2023-01-25T12:25:22;102275.88;;;3.44;100.00
11114;BME280;5610;52.154;9.198;2023-01-25T12:28:16;102262.72;;;3.42;100.00
11114;BME280;5610;52.154;9.198;2023-01-25T12:31:07;102256.56;;;3.43;100.00
11114;BME280;5610;52.154;9.198;2023-01-25T12:33:57;102259.44;;;2.99;100.00
11114;BME280;5610;52.154;9.198;2023-01-25T12:36:45;102252.38;;;3.01;100.00
11114;BME280;5610;52.154;9.198;2023-01-25T12:39:35;102249.81;;;2.90;100.00
11114;BME280;5610;52.154;9.198;2023-01-25T12:42:25;102241.16;;;2.61;100.00
11114;BME280;5610;52.154;9.198;2023-01-25T12:45:15;102227.19;;;2.28;100.00
11114;BME280;5610;52.154;9.198;2023-01-25T12:48:11;102218.41;;;2.31;100.00
11114;BME280;5610;52.154;9.198;2023-01-25T12:50:58;102214.91;;;2.30;100.00
11114;BME280;5610;52.154;9.198;2023-01-25T12:53:45;102220.13;;;2.48;100.00
11114;BME280;5610;52.154;9.198;2023-01-25T12:56:37;102213.97;;;2.57;100.00
11114;BME280;5610;52.154;9.198;2023-01-25T12:59:33;102199.09;;;2.41;100.00
11114;BME280;5610;52.154;9.198;2023-01-25T13:02:39;102192.16;;;2.18;100.00
11114;BME280;5610;52.154;9.198;2023-01-25T13:05:32;102186.91;;;2.08;100.00
11114;BME280;5610;52.154;9.198;2023-01-25T13:08:26;102183.41;;;2.03;100.00
11114;BME280;5610;52.154;9.198;2023-01-25T13:11:18;102172.91;;;1.80;100.00
11114;BME280;5610;52.154;9.198;2023-01-25T13:14:34;102172.03;;;1.85;100.00
11114;BME280;5610;52.154;9.198;2023-01-25T13:17:22;102170.31;;;1.78;100.00
11114;BME280;5610;52.154;9.198;2023-01-25T13:20:46;102159.75;;;2.00;100.00
11114;BME280;5610;52.154;9.198;2023-01-25T13:23:32;102163.22;;;2.26;100.00
11114;BME280;5610;52.154;9.198;2023-01-25T13:26:58;102166.59;;;2.56;100.00
11114;BME280;5610;52.154;9.198;2023-01-25T13:29:45;102153.41;;;2.68;100.00
11114;BME280;5610;52.154;9.198;2023-01-25T13:32:54;102147.19;;;2.83;100.00
11114;BME280;5610;52.154;9.198;2023-01-25T13:35:43;102133.06;;;2.93;100.00
11114;BME280;5610;52.154;9.198;2023-01-25T13:38:31;102122.47;;;3.05;100.00
11114;BME280;5610;52.154;9.198;2023-01-25T13:41:19;102117.16;;;3.11;100.00
11114;BME280;5610;52.154;9.198;2023-01-25T13:44:18;102119.84;;;3.03;100.00
11114;BME280;5610;52.154;9.198;2023-01-25T13:47:10;102112.91;;;2.90;100.00
11114;BME280;5610;52.154;9.198;2023-01-25T13:50:00;102110.38;;;2.72;100.00
11114;BME280;5610;52.154;9.198;2023-01-25T13:52:55;102113.09;;;2.52;100.00
11114;BME280;5610;52.154;9.198;2023-01-25T13:55:42;102102.66;;;2.32;100.00
11114;BME280;5610;52.154;9.198;2023-01-25T13:58:30;102108.00;;;2.18;100.00
11114;BME280;5610;52.154;9.198;2023-01-25T14:01:17;102108.00;;;2.15;100.00
11114;BME280;5610;52.154;9.198;2023-01-25T14:04:10;102103.63;;;2.11;100.00
11114;BME280;5610;52.154;9.198;2023-01-25T14:06:58;102091.34;;;2.13;100.00
11114;BME280;5610;52.154;9.198;2023-01-25T14:09:46;102090.41;;;2.25;100.00
11114;BME280;5610;52.154;9.198;2023-01-25T14:12:35;102085.22;;;2.19;100.00
11114;BME280;5610;52.154;9.198;2023-01-25T14:15:24;102086.16;;;2.00;100.00
11114;BME280;5610;52.154;9.198;2023-01-25T14:18:11;102086.09;;;2.09;100.00
11114;BME280;5610;52.154;9.198;2023-01-25T14:21:15;102080.81;;;2.16;100.00
11114;BME280;5610;52.154;9.198;2023-01-25T14:24:07;102079.94;;;2.20;100.00
11114;BME280;5610;52.154;9.198;2023-01-25T14:26:53;102079.06;;;2.15;100.00
11114;BME280;5610;52.154;9.198;2023-01-25T14:29:38;102080.75;;;2.30;100.00
11114;BME280;5610;52.154;9.198;2023-01-25T14:32:25;102083.34;;;2.42;100.00
11114;BME280;5610;52.154;9.198;2023-01-25T14:35:42;102078.06;;;2.42;100.00
11114;BME280;5610;52.154;9.198;2023-01-25T14:38:33;102092.03;;;2.58;100.00
11114;BME280;5610;52.154;9.198;2023-01-25T14:41:21;102093.72;;;2.67;100.00
11114;BME280;5610;52.154;9.198;2023-01-25T14:44:11;102091.97;;;2.69;100.00
11114;BME280;5610;52.154;9.198;2023-01-25T14:47:20;102094.66;;;2.57;100.00
11114;BME280;5610;52.154;9.198;2023-01-25T14:50:31;102096.41;;;2.59;100.00
11114;BME280;5610;52.154;9.198;2023-01-25T14:53:19;102088.50;;;2.62;100.00
11114;BME280;5610;52.154;9.198;2023-01-25T14:56:17;102088.47;;;2.67;100.00
11114;BME280;5610;52.154;9.198;2023-01-25T14:59:20;102094.66;;;2.54;100.00
11114;BME280;5610;52.154;9.198;2023-01-25T15:02:17;102085.03;;;2.56;100.00
11114;BME280;5610;52.154;9.198;2023-01-25T15:05:05;102083.25;;;2.58;100.00